createdAt,value
2017-09-20T03:32:13.682Z,11.38
2017-09-20T03:34:41.307Z,11.63
2017-09-20T03:37:08.885Z,9.90
2017-09-20T03:39:36.475Z,11.73
2017-09-20T03:42:05.062Z,11.70
2017-09-20T03:44:33.410Z,9.32
2017-09-20T03:47:01.103Z,8.40
2017-09-20T03:49:29.497Z,8.35
2017-09-20T03:51:57.140Z,11.12
2017-09-20T03:54:25.514Z,10.52
2017-09-20T03:56:53.993Z,9.40
2017-09-20T03:59:22.369Z,11.05
2017-09-20T04:01:50.718Z,11.60
2017-09-20T04:04:18.514Z,10.38
2017-09-20T04:06:46.890Z,11.18
2017-09-20T04:09:15.262Z,10.55
2017-09-20T04:11:43.745Z,11.88
2017-09-20T04:14:12.098Z,11.43
2017-09-20T04:16:39.890Z,11.85
2017-09-20T04:19:08.237Z,11.93
2017-09-20T04:21:35.820Z,11.52
2017-09-20T04:24:04.511Z,12.95
2017-09-20T04:26:32.861Z,10.75
2017-09-20T04:29:00.542Z,13.30
2017-09-20T04:31:28.941Z,12.00
2017-09-20T04:33:56.530Z,11.77
2017-09-20T04:36:24.138Z,12.20
2017-09-20T04:38:52.613Z,13.50
2017-09-20T04:41:20.962Z,13.05
2017-09-20T04:43:48.549Z,11.90
2017-09-20T04:46:16.965Z,10.88
2017-09-20T04:48:44.555Z,11.40
2017-09-20T04:51:12.150Z,13.80
2017-09-20T04:53:39.782Z,13.50
2017-09-20T04:56:07.370Z,13.88
2017-09-20T04:58:36.045Z,15.25
2017-09-20T05:01:04.425Z,16.85
2017-09-20T05:03:32.769Z,18.85
2017-09-20T05:06:00.373Z,18.65
2017-09-20T05:08:28.722Z,15.10
2017-09-20T05:10:56.346Z,13.57
2017-09-20T05:13:23.934Z,16.80
2017-09-20T05:15:51.522Z,17.45
2017-09-20T05:18:19.910Z,18.20
2017-09-20T05:20:47.557Z,15.75
2017-09-20T05:23:15.935Z,15.65
2017-09-20T05:25:44.445Z,17.25
2017-09-20T05:28:12.026Z,17.30
2017-09-20T05:30:39.611Z,16.52
2017-09-20T05:33:07.321Z,17.33
2017-09-20T05:35:35.001Z,18.25
2017-09-20T05:38:02.846Z,15.65
2017-09-20T05:40:31.289Z,17.60
2017-09-20T05:42:59.647Z,16.17
2017-09-20T05:45:27.233Z,9.73
2017-09-20T05:47:55.606Z,14.68
2017-09-20T05:50:23.954Z,10.05
2017-09-20T05:52:51.541Z,16.15
2017-09-20T05:55:20.125Z,11.82
2017-09-20T05:57:48.482Z,17.67
2017-09-20T06:00:16.078Z,20.23
2017-09-20T06:02:43.708Z,21.23
2017-09-20T06:05:11.293Z,21.05
2017-09-20T06:07:38.878Z,23.15
2017-09-20T06:10:06.526Z,23.17
2017-09-20T06:12:34.123Z,22.70
2017-09-20T06:15:01.708Z,24.25
2017-09-20T06:17:29.330Z,24.63
2017-09-20T06:19:56.913Z,24.63
2017-09-20T06:22:24.500Z,25.90
2017-09-20T06:24:52.998Z,23.27
2017-09-20T06:27:20.578Z,26.58
2017-09-20T06:29:48.163Z,26.15
2017-09-20T06:32:15.769Z,26.85
2017-09-20T06:34:43.358Z,26.52
2017-09-20T06:37:10.982Z,28.02
2017-09-20T06:39:38.585Z,26.83
2017-09-20T06:42:06.183Z,24.48
2017-09-20T06:44:34.570Z,28.35
2017-09-20T06:47:02.922Z,28.25
2017-09-20T06:49:30.511Z,29.02
2017-09-20T06:51:58.362Z,30.20
2017-09-20T06:54:26.726Z,29.08
2017-09-20T06:56:54.313Z,30.15
2017-09-20T06:59:22.163Z,29.23
2017-09-20T07:01:50.514Z,30.80
2017-09-20T07:04:18.097Z,29.85
2017-09-20T07:06:46.489Z,32.40
2017-09-20T07:09:14.075Z,36.63
2017-09-20T07:11:41.653Z,30.08
2017-09-20T07:14:09.262Z,31.15
2017-09-20T07:16:36.861Z,33.03
2017-09-20T07:19:04.482Z,31.23
2017-09-20T07:21:32.829Z,31.52
2017-09-20T07:24:00.416Z,33.40
2017-09-20T07:26:28.818Z,31.30
2017-09-20T07:28:56.406Z,32.72
2017-09-20T07:31:23.991Z,33.25
2017-09-20T07:33:51.637Z,37.30
2017-09-20T07:36:19.222Z,37.22
2017-09-20T07:38:47.570Z,35.08
2017-09-20T07:41:15.205Z,35.15
2017-09-20T07:43:42.786Z,37.50
2017-09-20T07:46:10.370Z,37.63
2017-09-20T07:48:38.954Z,36.35
2017-09-20T07:51:07.310Z,36.35
2017-09-20T07:53:36.722Z,35.85
2017-09-20T07:56:05.717Z,33.22
2017-09-20T07:58:34.065Z,36.28
2017-09-20T08:01:01.641Z,34.72
2017-09-20T08:03:31.273Z,36.08
2017-09-20T08:05:59.621Z,34.17
2017-09-20T08:08:27.207Z,36.00
2017-09-20T08:10:55.771Z,34.95
2017-09-20T08:13:23.361Z,33.85
2017-09-20T08:15:50.947Z,33.55
2017-09-20T08:18:18.805Z,33.95
2017-09-20T08:20:46.394Z,33.83
2017-09-20T08:23:13.978Z,34.80
2017-09-20T08:25:42.358Z,33.28
2017-09-20T08:28:10.711Z,33.85
2017-09-20T08:30:38.326Z,34.60
2017-09-20T08:33:05.910Z,35.08
2017-09-20T08:35:33.501Z,35.28
2017-09-20T08:38:01.133Z,33.53
2017-09-20T08:40:28.713Z,35.05
2017-09-20T08:42:56.304Z,36.88
2017-09-20T08:45:24.686Z,34.17
2017-09-20T08:47:52.282Z,36.15
2017-09-20T08:50:19.886Z,33.63
2017-09-20T08:52:48.261Z,33.90
2017-09-20T08:55:16.610Z,33.95
2017-09-20T08:57:44.198Z,35.47
2017-09-20T09:00:12.781Z,34.25
2017-09-20T09:02:41.131Z,37.65
2017-09-20T09:05:08.718Z,33.63
2017-09-20T09:07:37.281Z,37.30
2017-09-20T09:10:04.875Z,37.25
2017-09-20T09:12:32.466Z,37.05
2017-09-20T09:15:00.083Z,36.28
2017-09-20T09:17:28.482Z,33.05
2017-09-20T09:19:56.073Z,35.35
2017-09-20T09:22:23.658Z,33.33
2017-09-20T09:24:51.264Z,31.33
2017-09-20T09:27:18.846Z,33.17
2017-09-20T09:29:46.433Z,35.72
2017-09-20T09:32:14.314Z,35.63
2017-09-20T09:34:42.665Z,36.70
2017-09-20T09:37:10.250Z,37.10
2017-09-20T09:39:38.626Z,37.30
2017-09-20T09:42:06.979Z,35.47
2017-09-20T09:44:34.572Z,39.83
2017-09-20T09:47:02.185Z,36.08
2017-09-20T09:49:29.765Z,38.50
2017-09-20T09:51:57.346Z,37.45
2017-09-20T09:54:25.750Z,41.58
2017-09-20T09:56:53.338Z,42.85
2017-09-20T09:59:20.921Z,40.15
2017-09-20T10:01:48.810Z,37.05
2017-09-20T10:04:16.393Z,38.33
2017-09-20T10:06:43.981Z,36.60
2017-09-20T10:09:11.782Z,38.38
2017-09-20T10:11:40.134Z,34.92
2017-09-20T10:14:07.718Z,28.83
2017-09-20T10:16:36.302Z,31.10
2017-09-20T10:19:04.654Z,29.80
2017-09-20T10:21:32.245Z,25.10
2017-09-20T10:23:59.854Z,25.33
2017-09-20T10:26:27.446Z,21.83
2017-09-20T10:28:55.823Z,23.48
2017-09-20T10:31:24.174Z,23.45
2017-09-20T10:33:51.762Z,21.58
2017-09-20T10:36:20.159Z,23.23
2017-09-20T10:38:47.752Z,23.12
2017-09-20T10:41:15.335Z,18.67
2017-09-20T10:43:43.228Z,23.58
2017-09-20T10:46:11.579Z,21.67
2017-09-20T10:48:39.169Z,20.62
2017-09-20T10:51:06.825Z,22.70
2017-09-20T10:53:35.178Z,23.95
2017-09-20T10:56:02.811Z,22.20
2017-09-20T10:58:30.618Z,22.85
2017-09-20T11:00:58.980Z,22.25
2017-09-20T11:03:26.571Z,23.73
2017-09-20T11:05:54.215Z,19.37
2017-09-20T11:08:22.574Z,18.17
2017-09-20T11:13:26.258Z,18.90
2017-09-20T11:15:53.869Z,18.60
2017-09-20T11:18:22.245Z,14.00
2017-09-20T11:20:50.597Z,12.95
2017-09-20T11:23:18.194Z,13.98
2017-09-20T11:25:45.834Z,14.68
2017-09-20T11:28:14.251Z,12.80
2017-09-20T11:30:41.841Z,15.07
2017-09-20T11:33:09.466Z,17.10
2017-09-20T11:35:37.087Z,13.90
2017-09-20T11:38:05.495Z,15.90
2017-09-20T11:40:33.086Z,18.00
2017-09-20T11:43:00.675Z,15.47
2017-09-20T11:45:28.308Z,15.70
2017-09-20T11:47:55.907Z,14.77
2017-09-20T11:50:24.261Z,14.00
2017-09-20T11:52:51.877Z,11.00
2017-09-20T11:55:19.466Z,9.55
2017-09-20T11:57:47.274Z,10.55
2017-09-20T12:00:15.630Z,10.30
2017-09-20T12:02:43.222Z,9.52
2017-09-20T12:05:10.830Z,9.80
2017-09-20T12:07:38.422Z,8.70
2017-09-20T12:10:07.013Z,9.27
2017-09-20T12:12:34.601Z,8.10
2017-09-20T12:15:02.187Z,8.27
2017-09-20T12:17:29.990Z,9.02
2017-09-20T12:19:58.341Z,9.18
2017-09-20T12:22:25.929Z,8.70
2017-09-20T12:24:53.665Z,9.80
2017-09-20T12:27:21.259Z,9.15
2017-09-20T12:29:48.842Z,8.30
2017-09-20T12:32:16.465Z,7.50
2017-09-20T12:34:44.818Z,7.60
2017-09-20T12:37:12.407Z,6.77
2017-09-20T12:39:40.014Z,8.67
2017-09-20T12:42:07.606Z,7.12
2017-09-20T12:44:36.019Z,5.65
2017-09-20T12:47:03.609Z,8.30
2017-09-20T12:49:31.263Z,6.60
2017-09-20T12:51:59.897Z,7.95
2017-09-20T12:54:28.250Z,6.95
2017-09-20T12:56:55.843Z,8.93
2017-09-20T12:59:23.486Z,9.45
2017-09-20T13:01:51.846Z,9.23
2017-09-20T13:04:19.433Z,8.20
2017-09-20T13:06:47.037Z,8.48
2017-09-20T13:09:14.625Z,7.20
2017-09-20T13:11:42.262Z,7.15
2017-09-20T13:14:09.853Z,7.47
2017-09-20T13:16:37.441Z,7.90
2017-09-20T13:19:05.262Z,7.90
2017-09-20T13:21:32.866Z,7.90
2017-09-20T13:24:00.557Z,6.33
2017-09-20T13:26:28.350Z,6.60
2017-09-20T13:28:55.933Z,7.37
2017-09-20T13:31:24.282Z,5.97
2017-09-20T13:33:51.930Z,5.83
2017-09-20T13:36:20.321Z,5.00
2017-09-20T13:38:47.904Z,4.70
2017-09-20T13:41:16.281Z,4.50
2017-09-20T13:43:44.708Z,5.10
2017-09-20T13:46:12.305Z,4.57
2017-09-20T13:48:39.925Z,3.93
2017-09-20T13:51:07.510Z,4.07
2017-09-20T13:53:35.133Z,4.53
2017-09-20T13:56:02.717Z,3.87
2017-09-20T13:58:30.309Z,2.93
2017-09-20T14:00:58.890Z,3.77
2017-09-20T14:03:27.246Z,3.10
2017-09-20T14:05:54.834Z,2.90
2017-09-20T14:08:23.202Z,2.70
2017-09-20T14:10:52.042Z,2.43
2017-09-20T14:13:19.662Z,2.80
2017-09-20T14:15:48.010Z,3.53
2017-09-20T14:18:15.589Z,3.40
2017-09-20T14:20:43.970Z,3.53
2017-09-20T14:23:11.562Z,2.83
2017-09-20T14:25:39.138Z,3.60
2017-09-20T14:28:06.742Z,3.00
2017-09-20T14:35:08.421Z,3.50
2017-09-20T14:37:36.770Z,3.57
2017-09-20T14:40:05.043Z,3.97
2017-09-20T14:42:32.623Z,3.77
2017-09-20T14:45:01.022Z,3.12
2017-09-20T14:47:28.619Z,3.63
2017-09-20T14:49:56.201Z,3.37
2017-09-20T14:52:23.830Z,3.43
2017-09-20T14:54:51.414Z,3.80
2017-09-20T14:57:18.998Z,3.22
2017-09-20T14:59:46.842Z,3.80
2017-09-20T15:02:14.671Z,3.60
2017-09-20T15:04:43.202Z,3.35
2017-09-20T15:07:10.818Z,3.75
2017-09-20T15:09:38.414Z,3.50
2017-09-20T15:12:05.998Z,4.15
2017-09-20T15:14:34.390Z,3.83
2017-09-20T15:17:01.981Z,3.55
2017-09-20T15:19:29.573Z,4.43
2017-09-20T15:21:57.181Z,3.75
2017-09-20T15:24:24.773Z,5.07
2017-09-20T15:26:52.409Z,4.60
2017-09-20T15:29:20.001Z,4.72
2017-09-20T15:31:47.578Z,4.40
2017-09-20T15:34:15.975Z,5.53
2017-09-20T15:36:44.324Z,5.70
2017-09-20T15:39:11.923Z,7.43
2017-09-20T15:41:39.765Z,6.75
2017-09-20T15:44:08.114Z,6.70
2017-09-20T15:46:35.702Z,7.95
2017-09-20T15:49:04.127Z,8.75
2017-09-20T15:51:31.721Z,9.05
2017-09-20T15:53:59.303Z,7.12
2017-09-20T15:56:27.705Z,9.07
2017-09-20T15:58:55.290Z,9.60
2017-09-20T16:01:22.874Z,10.02
2017-09-20T16:03:50.758Z,8.70
2017-09-20T16:06:19.105Z,8.07
2017-09-20T16:08:46.694Z,7.03
2017-09-20T16:11:15.061Z,8.85
2017-09-20T16:13:42.671Z,8.05
2017-09-20T16:16:10.258Z,9.27
2017-09-20T16:18:37.841Z,8.75
2017-09-20T16:21:06.240Z,6.68
2017-09-20T16:23:33.822Z,6.72
2017-09-20T16:26:01.398Z,5.85
2017-09-20T16:28:29.201Z,6.50
2017-09-20T16:30:57.545Z,7.15
2017-09-20T16:33:25.142Z,7.07
2017-09-20T16:35:52.793Z,8.70
2017-09-20T16:38:21.147Z,7.80
2017-09-20T16:40:48.730Z,7.50
2017-09-20T16:43:17.110Z,7.50
2017-09-20T16:45:45.456Z,7.93
2017-09-20T16:48:13.062Z,7.72
2017-09-20T16:50:40.650Z,8.25
2017-09-20T16:53:08.290Z,9.40
2017-09-20T16:55:35.872Z,6.10
2017-09-20T16:58:03.454Z,8.52
2017-09-20T17:00:31.091Z,6.70
2017-09-20T17:02:58.674Z,7.65
2017-09-20T17:05:26.265Z,7.25
2017-09-20T17:07:54.638Z,7.40
2017-09-20T17:10:22.988Z,7.45
2017-09-20T17:12:50.783Z,7.82
2017-09-20T17:15:19.129Z,6.00
2017-09-20T17:17:46.710Z,6.90
2017-09-20T17:20:15.114Z,6.82
2017-09-20T17:22:42.698Z,6.37
2017-09-20T17:25:11.058Z,6.60
2017-09-20T17:27:38.690Z,7.75
2017-09-20T17:30:07.041Z,8.45
2017-09-20T17:32:34.630Z,9.18
2017-09-20T17:35:03.197Z,8.50
2017-09-20T17:37:30.781Z,9.93
2017-09-20T17:39:58.373Z,16.45
2017-09-20T17:42:26.018Z,16.90
2017-09-20T17:44:53.628Z,17.15
2017-09-20T17:47:21.218Z,8.10
2017-09-20T17:49:48.827Z,9.15
2017-09-20T17:52:16.478Z,7.00
2017-09-20T17:54:44.066Z,8.13
2017-09-20T17:57:11.649Z,8.35
2017-09-20T17:59:40.045Z,7.50
2017-09-20T18:02:07.625Z,8.65
2017-09-20T18:04:35.494Z,7.15
2017-09-20T18:07:03.127Z,8.40
2017-09-20T18:09:30.708Z,9.27
2017-09-20T18:11:58.290Z,8.85
2017-09-20T18:14:25.897Z,8.70
2017-09-20T18:16:53.673Z,10.65
2017-09-20T18:19:21.261Z,11.18
2017-09-20T18:21:48.846Z,11.35
2017-09-20T18:24:17.442Z,12.48
2017-09-20T18:26:45.794Z,13.43
2017-09-20T18:29:13.382Z,8.85
2017-09-20T18:31:41.785Z,9.50
2017-09-20T18:34:09.371Z,9.65
2017-09-20T18:36:36.957Z,12.80
2017-09-20T18:39:05.341Z,11.30
2017-09-20T18:41:33.694Z,11.10
2017-09-20T18:44:02.426Z,11.63
2017-09-20T18:46:30.058Z,10.45
2017-09-20T18:48:57.650Z,10.93
2017-09-20T18:51:25.242Z,10.80
2017-09-20T18:53:52.898Z,13.60
2017-09-20T18:56:20.495Z,15.48
2017-09-20T18:58:48.084Z,19.00
2017-09-20T19:01:15.934Z,15.10
2017-09-20T19:03:44.296Z,15.98
2017-09-20T19:06:11.886Z,13.05
2017-09-20T19:08:39.547Z,15.75
2017-09-20T19:11:07.134Z,13.70
2017-09-20T19:13:34.723Z,9.77
2017-09-20T19:16:02.390Z,10.48
2017-09-20T19:18:29.978Z,11.52
2017-09-20T19:20:57.578Z,10.13
2017-09-20T19:23:25.353Z,10.95
2017-09-20T19:25:52.942Z,11.43
2017-09-20T19:28:21.288Z,9.98
2017-09-20T19:30:48.893Z,9.88
2017-09-20T19:33:16.486Z,11.32
2017-09-20T19:35:44.070Z,9.18
2017-09-20T19:38:11.703Z,10.10
2017-09-20T19:40:39.298Z,10.38
2017-09-20T19:43:06.886Z,9.90
2017-09-20T19:45:35.278Z,6.50
2017-09-20T19:48:02.871Z,8.45
2017-09-20T19:50:30.454Z,9.88
2017-09-20T19:52:58.066Z,8.05
2017-09-20T19:55:25.662Z,9.70
2017-09-20T19:57:53.295Z,11.88
2017-09-20T20:00:20.879Z,12.88
2017-09-20T20:02:48.486Z,13.10
2017-09-20T20:05:16.138Z,13.07
2017-09-20T20:07:44.511Z,9.75
2017-09-20T20:10:12.861Z,10.85
2017-09-20T20:12:40.502Z,8.07
2017-09-20T20:15:08.087Z,7.85
2017-09-20T20:17:35.671Z,5.90
2017-09-20T20:20:03.324Z,41.92
2017-09-20T20:22:31.682Z,11.68
2017-09-20T20:24:59.266Z,7.90
2017-09-20T20:27:27.061Z,7.28
2017-09-20T20:29:54.651Z,9.93
2017-09-20T20:32:22.242Z,15.40
2017-09-20T20:34:50.718Z,36.47
2017-09-20T20:37:19.094Z,15.20
2017-09-20T20:39:47.449Z,12.75
2017-09-20T20:42:15.087Z,12.32
2017-09-20T20:44:42.674Z,9.45
2017-09-20T20:47:10.401Z,8.98
2017-09-20T20:49:38.113Z,9.32
2017-09-20T20:52:06.470Z,9.52
2017-09-20T20:54:34.049Z,8.73
2017-09-20T20:57:02.422Z,10.23
2017-09-20T20:59:30.778Z,12.05
2017-09-20T21:01:58.430Z,15.43
2017-09-20T21:04:26.027Z,16.92
2017-09-20T21:06:54.394Z,17.92
2017-09-20T21:09:22.786Z,17.85
2017-09-20T21:11:51.153Z,19.70
2017-09-20T21:14:19.533Z,34.58
2017-09-20T21:16:47.909Z,36.70
2017-09-20T21:19:16.286Z,14.95
2017-09-20T21:21:44.637Z,13.70
2017-09-20T21:24:12.281Z,14.15
2017-09-20T21:26:39.887Z,13.85
2017-09-20T21:29:08.234Z,15.35
2017-09-20T21:31:35.923Z,15.45
2017-09-20T21:34:04.298Z,15.00
2017-09-20T21:36:32.778Z,16.30
2017-09-20T21:39:01.130Z,13.75
2017-09-20T21:41:28.814Z,12.35
2017-09-20T21:43:57.265Z,12.95
2017-09-20T21:46:24.854Z,13.18
2017-09-20T21:48:53.230Z,13.32
2017-09-20T21:51:21.706Z,12.37
2017-09-20T21:53:50.050Z,14.05
2017-09-20T21:56:17.630Z,13.55
2017-09-20T21:58:45.233Z,14.18
2017-09-20T22:01:12.814Z,12.60
2017-09-20T22:03:40.413Z,14.02
2017-09-20T22:06:08.806Z,15.40
2017-09-20T22:08:37.180Z,12.90
2017-09-20T22:11:05.525Z,9.93
2017-09-20T22:13:33.125Z,9.07
2017-09-20T22:16:12.474Z,10.30
2017-09-20T22:18:51.982Z,11.25
2017-09-20T22:21:32.354Z,10.90
2017-09-20T22:24:12.762Z,10.73
2017-09-20T22:26:45.210Z,10.52
2017-09-20T22:29:12.811Z,9.30
